createdAt,value
2019-04-01T00:00:44.751Z,7.08
2019-04-01T00:03:17.754Z,6.53
2019-04-01T00:05:50.895Z,6.60
2019-04-01T00:08:24.001Z,7.35
2019-04-01T00:10:57.031Z,7.10
2019-04-01T00:13:30.141Z,7.70
2019-04-01T00:16:03.401Z,7.00
2019-04-01T00:18:36.521Z,6.90
2019-04-01T00:21:09.732Z,7.10
2019-04-01T00:23:42.741Z,7.28
2019-04-01T00:26:15.670Z,6.92
2019-04-01T00:28:48.652Z,7.30
2019-04-01T00:31:21.462Z,6.90
2019-04-01T00:33:54.571Z,6.65
2019-04-01T00:36:27.567Z,6.85
2019-04-01T00:39:00.551Z,7.03
2019-04-01T00:41:35.212Z,7.30
2019-04-01T00:44:09.605Z,7.85
2019-04-01T00:46:42.467Z,6.90
2019-04-01T00:49:15.361Z,6.83
2019-04-01T00:51:48.261Z,7.67
2019-04-01T00:54:21.151Z,7.08
2019-04-01T00:56:54.251Z,6.25
2019-04-01T00:59:27.448Z,6.72
2019-04-01T01:02:00.227Z,6.47
2019-04-01T01:04:33.341Z,7.50
2019-04-01T01:07:06.176Z,7.85
2019-04-01T01:09:39.111Z,8.10
2019-04-01T01:12:12.137Z,7.42
2019-04-01T01:14:45.192Z,6.83
2019-04-01T01:17:18.111Z,7.28
2019-04-01T01:19:51.272Z,7.10
2019-04-01T01:22:24.322Z,6.33
2019-04-01T01:24:57.224Z,7.20
2019-04-01T01:27:30.357Z,7.30
2019-04-01T01:30:04.118Z,8.30
2019-04-01T01:32:37.074Z,7.33
2019-04-01T01:35:10.191Z,7.42
2019-04-01T01:37:43.181Z,6.70
2019-04-01T01:40:16.335Z,7.10
2019-04-01T01:42:49.501Z,7.30
2019-04-01T01:45:22.531Z,7.37
2019-04-01T01:47:55.897Z,7.47
2019-04-01T01:50:28.951Z,6.72
2019-04-01T01:53:02.042Z,7.35
2019-04-01T01:55:35.131Z,6.87
2019-04-01T01:58:07.828Z,7.05
2019-04-01T02:00:41.871Z,7.17
2019-04-01T02:03:15.131Z,7.67
2019-04-01T02:05:48.331Z,7.62
2019-04-01T02:08:21.531Z,7.90
2019-04-01T02:10:54.552Z,7.55
2019-04-01T02:13:27.562Z,7.60
2019-04-01T02:16:00.631Z,7.03
2019-04-01T02:18:33.772Z,7.28
2019-04-01T02:21:06.404Z,7.30
2019-04-01T02:23:39.551Z,6.62
2019-04-01T02:26:12.561Z,6.95
2019-04-01T02:28:45.610Z,7.17
2019-04-01T02:31:18.752Z,7.03
2019-04-01T02:33:51.913Z,7.50
2019-04-01T02:36:24.691Z,7.35
2019-04-01T02:38:57.816Z,7.40
2019-04-01T02:41:30.895Z,7.15
2019-04-01T02:44:04.376Z,6.83
2019-04-01T02:46:37.351Z,7.20
2019-04-01T02:49:10.484Z,6.50
2019-04-01T02:51:43.734Z,7.70
2019-04-01T02:54:16.664Z,7.55
2019-04-01T02:56:49.914Z,7.30
2019-04-01T02:59:22.873Z,6.90
2019-04-01T03:01:56.053Z,6.45
2019-04-01T03:04:29.163Z,6.62
2019-04-01T03:07:02.244Z,7.25
2019-04-01T03:09:35.211Z,6.85
2019-04-01T03:12:07.877Z,6.95
2019-04-01T03:14:41.041Z,7.55
2019-04-01T03:17:13.902Z,7.50
2019-04-01T03:19:46.843Z,7.92
2019-04-01T03:22:19.702Z,8.73
2019-04-01T03:24:52.801Z,14.58
2019-04-01T03:27:25.676Z,8.73
2019-04-01T03:29:58.773Z,13.90
2019-04-01T03:32:31.950Z,8.03
2019-04-01T03:35:05.418Z,11.80
2019-04-01T03:37:38.682Z,6.80
2019-04-01T03:40:11.932Z,8.05
2019-04-01T03:42:45.021Z,7.30
2019-04-01T03:45:18.093Z,7.28
2019-04-01T03:47:51.243Z,6.95
2019-04-01T03:50:24.394Z,7.85
2019-04-01T03:52:57.222Z,7.75
2019-04-01T03:55:30.251Z,7.62
2019-04-01T03:58:03.800Z,7.75
2019-04-01T04:00:36.662Z,7.58
2019-04-01T04:03:09.501Z,7.53
2019-04-01T04:05:42.362Z,7.25
2019-04-01T04:08:15.513Z,7.15
2019-04-01T04:10:48.892Z,7.08
2019-04-01T04:13:21.675Z,7.30
2019-04-01T04:15:54.876Z,6.80
2019-04-01T04:18:27.862Z,6.75
2019-04-01T04:21:00.952Z,7.17
2019-04-01T04:23:33.903Z,6.78
2019-04-01T04:26:06.706Z,6.70
2019-04-01T04:28:39.881Z,6.87
2019-04-01T04:31:13.067Z,7.53
2019-04-01T04:33:46.021Z,7.42
2019-04-01T04:36:19.023Z,6.65
2019-04-01T04:38:51.982Z,6.83
2019-04-01T04:41:25.042Z,7.20
2019-04-01T04:43:58.211Z,7.00
2019-04-01T04:46:31.241Z,7.08
2019-04-01T04:49:04.950Z,6.97
2019-04-01T04:51:38.135Z,7.28
2019-04-01T04:54:11.081Z,7.35
2019-04-01T04:56:44.081Z,6.53
2019-04-01T04:59:17.431Z,6.67
2019-04-01T05:01:50.441Z,6.90
2019-04-01T05:04:23.617Z,7.08
2019-04-01T05:06:56.802Z,6.55
2019-04-01T05:09:30.080Z,6.08
2019-04-01T05:12:03.393Z,6.85
2019-04-01T05:14:36.291Z,6.80
2019-04-01T05:17:09.272Z,6.65
2019-04-01T05:19:42.440Z,6.62
2019-04-01T05:22:15.443Z,6.83
2019-04-01T05:24:48.335Z,6.20
2019-04-01T05:27:21.401Z,6.95
2019-04-01T05:29:54.422Z,7.15
2019-04-01T05:32:27.694Z,7.47
2019-04-01T05:35:00.751Z,6.35
2019-04-01T05:37:34.061Z,7.55
2019-04-01T05:40:06.773Z,6.92
2019-04-01T05:42:40.041Z,7.37
2019-04-01T05:45:13.101Z,7.05
2019-04-01T05:47:53.501Z,6.92
2019-04-01T05:50:26.443Z,6.58
2019-04-01T05:52:59.680Z,6.10
2019-04-01T05:55:32.622Z,7.42
2019-04-01T05:58:06.175Z,7.08
2019-04-01T06:00:40.573Z,7.92
2019-04-01T06:03:13.421Z,7.60
2019-04-01T06:05:46.671Z,7.83
2019-04-01T06:08:19.621Z,6.97
2019-04-01T06:10:52.580Z,8.00
2019-04-01T06:13:25.620Z,6.97
2019-04-01T06:15:58.591Z,6.70
2019-04-01T06:18:31.682Z,6.67
2019-04-01T06:21:05.662Z,6.70
2019-04-01T06:23:38.661Z,6.75
2019-04-01T06:26:11.473Z,7.20
2019-04-01T06:28:45.380Z,7.28
2019-04-01T06:31:18.271Z,7.92
2019-04-01T06:33:51.271Z,7.03
2019-04-01T06:36:24.083Z,6.75
2019-04-01T06:38:56.971Z,6.95
2019-04-01T06:41:29.870Z,7.35
2019-04-01T06:44:03.753Z,7.20
2019-04-01T06:46:36.670Z,6.83
2019-04-01T06:49:09.961Z,6.72
2019-04-01T06:51:42.940Z,7.03
2019-04-01T06:54:15.810Z,6.85
2019-04-01T06:56:48.801Z,7.08
2019-04-01T06:59:21.841Z,7.05
2019-04-01T07:01:54.861Z,7.35
2019-04-01T07:04:27.791Z,6.97
2019-04-01T07:07:00.771Z,6.80
2019-04-01T07:09:33.921Z,7.00
2019-04-01T07:12:06.586Z,6.92
2019-04-01T07:14:39.583Z,6.80
2019-04-01T07:17:12.442Z,7.00
2019-04-01T07:19:45.310Z,8.15
2019-04-01T07:22:18.120Z,8.00
2019-04-01T07:24:51.204Z,8.48
2019-04-01T07:27:23.972Z,7.83
2019-04-01T07:29:56.981Z,9.35
2019-04-01T07:32:29.825Z,9.48
2019-04-01T07:35:03.425Z,8.13
2019-04-01T07:37:36.451Z,9.03
2019-04-01T07:40:09.521Z,8.75
2019-04-01T07:42:42.351Z,8.45
2019-04-01T07:45:15.374Z,9.90
2019-04-01T07:47:51.512Z,9.23
2019-04-01T07:50:22.781Z,9.18
2019-04-01T07:52:55.941Z,9.20
2019-04-01T07:55:29.468Z,8.10
2019-04-01T07:58:04.246Z,7.95
2019-04-01T08:00:37.293Z,7.80
2019-04-01T08:03:10.101Z,7.87
2019-04-01T08:05:43.011Z,7.78
2019-04-01T08:08:15.862Z,8.58
2019-04-01T08:10:48.792Z,8.15
2019-04-01T08:13:21.622Z,8.10
2019-04-01T08:15:54.511Z,9.68
2019-04-01T08:18:27.472Z,9.95
2019-04-01T08:21:00.571Z,8.75
2019-04-01T08:23:33.460Z,8.80
2019-04-01T08:26:06.141Z,8.03
2019-04-01T08:28:39.121Z,7.45
2019-04-01T08:31:13.466Z,8.83
2019-04-01T08:33:50.032Z,7.95
2019-04-01T08:36:21.270Z,8.13
2019-04-01T08:38:55.551Z,7.67
2019-04-01T08:41:28.641Z,8.00
2019-04-01T08:44:03.263Z,9.10
2019-04-01T08:46:36.371Z,8.45
2019-04-01T08:49:09.141Z,8.95
2019-04-01T08:51:42.481Z,8.25
2019-04-01T08:54:15.441Z,8.13
2019-04-01T08:56:48.411Z,9.25
2019-04-01T08:59:21.321Z,9.03
2019-04-01T09:01:54.301Z,8.88
2019-04-01T09:04:27.121Z,9.45
2019-04-01T09:07:00.049Z,8.80
2019-04-01T09:09:32.901Z,8.93
2019-04-01T09:12:05.870Z,9.00
2019-04-01T09:14:38.877Z,9.28
2019-04-01T09:17:11.680Z,9.15
2019-04-01T09:19:44.671Z,9.50
2019-04-01T09:22:17.551Z,10.00
2019-04-01T09:24:50.401Z,9.53
2019-04-01T09:27:23.281Z,10.05
2019-04-01T09:29:56.252Z,9.90
2019-04-01T09:32:29.266Z,9.73
2019-04-01T09:35:02.193Z,10.28
2019-04-01T09:37:35.026Z,10.03
2019-04-01T09:40:07.754Z,10.43
2019-04-01T09:42:40.801Z,10.58
2019-04-01T09:45:13.643Z,10.18
2019-04-01T09:47:49.134Z,10.25
2019-04-01T09:50:22.042Z,8.90
2019-04-01T09:52:55.026Z,9.50
2019-04-01T09:55:28.012Z,10.50
2019-04-01T09:58:01.012Z,10.25
2019-04-01T10:00:33.872Z,12.03
2019-04-01T10:03:06.727Z,11.48
2019-04-01T10:05:39.623Z,11.83
2019-04-01T10:08:12.451Z,9.85
2019-04-01T10:10:45.450Z,11.53
2019-04-01T10:13:18.401Z,11.48
2019-04-01T10:15:51.371Z,11.40
2019-04-01T10:18:24.472Z,11.35
2019-04-01T10:20:57.441Z,11.20
2019-04-01T10:23:30.331Z,11.30
2019-04-01T10:26:03.907Z,12.28
2019-04-01T10:28:36.871Z,11.68
2019-04-01T10:42:07.377Z,11.78
2019-04-01T10:44:40.651Z,11.73
2019-04-01T10:47:13.373Z,12.33
2019-04-01T10:49:46.361Z,13.68
2019-04-01T10:52:19.492Z,14.85
2019-04-01T10:54:52.715Z,13.98
2019-04-01T10:57:25.781Z,12.43
2019-04-01T10:59:59.201Z,14.78
2019-04-01T11:02:32.388Z,14.43
2019-04-01T11:05:05.726Z,15.20
2019-04-01T11:07:38.691Z,15.18
2019-04-01T11:10:11.996Z,14.85
2019-04-01T11:12:45.471Z,15.32
2019-04-01T11:15:20.024Z,15.23
2019-04-01T11:17:53.713Z,13.62
2019-04-01T11:20:26.620Z,12.23
2019-04-01T11:23:02.526Z,12.45
2019-04-01T11:25:34.641Z,12.58
2019-04-01T11:28:07.591Z,11.88
2019-04-01T11:30:40.609Z,11.53
2019-04-01T11:33:13.837Z,11.88
2019-04-01T11:35:46.923Z,12.35
2019-04-01T11:38:20.013Z,10.93
2019-04-01T11:40:53.326Z,11.83
2019-04-01T11:43:26.434Z,12.07
2019-04-01T11:45:59.720Z,12.93
2019-04-01T11:48:32.658Z,11.30
2019-04-01T11:51:05.834Z,11.00
2019-04-01T11:53:38.990Z,11.55
2019-04-01T11:56:11.920Z,10.95
2019-04-01T11:58:44.890Z,10.20
2019-04-01T12:01:17.861Z,10.03
2019-04-01T12:03:50.671Z,10.10
2019-04-01T12:06:23.981Z,10.98
2019-04-01T12:08:56.951Z,10.30
2019-04-01T12:11:29.894Z,10.48
2019-04-01T12:14:05.116Z,10.03
2019-04-01T12:16:37.921Z,11.33
2019-04-01T12:19:10.723Z,10.72
2019-04-01T12:21:43.635Z,10.20
2019-04-01T12:24:16.550Z,11.75
2019-04-01T12:26:49.550Z,11.25
2019-04-01T12:29:22.371Z,12.05
2019-04-01T12:31:55.371Z,11.18
2019-04-01T12:34:28.317Z,10.35
2019-04-01T12:37:01.221Z,11.28
2019-04-01T12:39:34.210Z,10.08
2019-04-01T12:42:06.987Z,10.15
2019-04-01T12:44:41.354Z,11.10
2019-04-01T12:47:14.692Z,9.33
2019-04-01T12:49:47.691Z,8.33
2019-04-01T12:52:20.510Z,8.78
2019-04-01T12:54:53.731Z,10.78
2019-04-01T12:57:26.741Z,8.65
2019-04-01T12:59:59.850Z,9.45
2019-04-01T13:02:32.921Z,10.20
2019-04-01T13:05:05.918Z,10.88
2019-04-01T13:07:39.125Z,9.25
2019-04-01T13:10:11.970Z,12.45
2019-04-01T13:12:46.333Z,12.30
2019-04-01T13:15:19.661Z,11.30
2019-04-01T13:17:52.931Z,11.88
2019-04-01T13:20:37.183Z,11.10
2019-04-01T13:23:00.834Z,12.33
2019-04-01T13:25:34.198Z,9.73
2019-04-01T13:28:07.097Z,11.05
2019-04-01T13:30:40.000Z,11.10
2019-04-01T13:33:13.021Z,13.22
2019-04-01T13:35:46.101Z,11.38
2019-04-01T13:38:18.911Z,11.83
2019-04-01T13:40:51.825Z,11.90
2019-04-01T13:43:24.848Z,11.22
2019-04-01T13:45:57.829Z,9.53
2019-04-01T13:48:30.791Z,10.80
2019-04-01T13:51:04.418Z,8.68
2019-04-01T13:53:37.471Z,8.80
2019-04-01T13:56:12.271Z,10.15
2019-04-01T13:58:45.130Z,9.45
2019-04-01T14:01:18.032Z,9.05
2019-04-01T14:03:51.011Z,9.43
2019-04-01T14:06:23.831Z,8.18
2019-04-01T14:09:00.306Z,9.13
2019-04-01T14:11:31.490Z,8.68
2019-04-01T14:14:05.323Z,7.67
2019-04-01T14:16:41.371Z,8.13
2019-04-01T14:19:13.341Z,9.20
2019-04-01T14:21:46.391Z,9.03
2019-04-01T14:24:19.557Z,7.97
2019-04-01T14:26:56.390Z,6.42
2019-04-01T14:29:27.301Z,7.87
2019-04-01T14:32:00.440Z,8.90
2019-04-01T14:34:33.311Z,8.38
2019-04-01T14:37:09.673Z,7.55
2019-04-01T14:39:40.941Z,8.05
2019-04-01T14:42:14.040Z,8.48
2019-04-01T14:44:47.410Z,8.05
2019-04-01T14:47:20.471Z,10.13
2019-04-01T14:49:53.801Z,8.90
2019-04-01T14:52:32.573Z,10.35
2019-04-01T14:55:02.407Z,10.08
2019-04-01T14:57:35.665Z,10.48
2019-04-01T15:00:08.362Z,11.18
2019-04-01T15:02:41.330Z,9.20
2019-04-01T15:05:14.261Z,9.35
2019-04-01T15:07:47.375Z,9.45
2019-04-01T15:10:20.214Z,8.63
2019-04-01T15:13:04.437Z,7.65
2019-04-01T15:15:27.723Z,12.07
2019-04-01T15:18:00.883Z,10.40
2019-04-01T15:20:33.902Z,10.60
2019-04-01T15:23:06.601Z,12.18
2019-04-01T15:25:39.590Z,11.38
2019-04-01T15:28:12.470Z,10.82
2019-04-01T15:30:45.392Z,10.68
2019-04-01T15:33:18.270Z,10.95
2019-04-01T15:35:51.324Z,10.40
2019-04-01T15:38:24.231Z,10.70
2019-04-01T15:40:58.386Z,10.43
2019-04-01T15:43:31.681Z,8.20
2019-04-01T15:46:06.319Z,11.45
2019-04-01T15:48:39.622Z,11.05
2019-04-01T15:51:12.780Z,10.53
2019-04-01T15:53:45.720Z,9.30
2019-04-01T15:56:18.660Z,8.40
2019-04-01T15:58:51.602Z,9.18
2019-04-01T16:01:24.589Z,11.12
2019-04-01T16:03:57.651Z,11.90
2019-04-01T16:06:32.076Z,10.82
2019-04-01T16:09:06.279Z,11.40
2019-04-01T16:11:39.352Z,9.60
2019-04-01T16:14:12.611Z,12.63
2019-04-01T16:16:45.691Z,10.48
2019-04-01T16:19:18.831Z,9.25
2019-04-01T16:21:52.184Z,9.10
2019-04-01T16:24:26.232Z,9.18
2019-04-01T16:26:59.291Z,8.65
2019-04-01T16:29:32.430Z,10.63
2019-04-01T16:32:06.094Z,9.58
2019-04-01T16:34:41.979Z,12.15
2019-04-01T16:37:13.611Z,9.90
2019-04-01T16:39:46.731Z,10.38
2019-04-01T16:42:19.858Z,11.20
2019-04-01T16:44:54.190Z,11.10
2019-04-01T16:47:27.602Z,10.75
2019-04-01T16:50:01.280Z,10.25
2019-04-01T16:52:34.271Z,11.35
2019-04-01T16:55:07.221Z,11.85
2019-04-01T16:57:40.219Z,11.63
2019-04-01T17:00:14.814Z,11.65
2019-04-01T17:02:48.061Z,11.30
2019-04-01T17:05:21.169Z,12.45
2019-04-01T17:07:54.743Z,11.68
2019-04-01T17:10:28.181Z,11.55
2019-04-01T17:13:01.585Z,11.25
2019-04-01T17:15:35.250Z,10.70
2019-04-01T17:18:08.172Z,11.53
2019-04-01T17:20:41.839Z,11.05
2019-04-01T17:23:15.041Z,12.58
2019-04-01T17:25:48.150Z,12.23
2019-04-01T17:28:21.545Z,11.18
2019-04-01T17:30:54.771Z,12.35
2019-04-01T17:33:27.915Z,12.35
2019-04-01T17:36:01.171Z,12.47
2019-04-01T17:38:35.981Z,13.62
2019-04-01T17:41:08.931Z,11.90
2019-04-01T17:43:42.111Z,13.10
2019-04-01T17:46:14.891Z,12.23
2019-04-01T17:48:47.951Z,12.15
2019-04-01T17:51:20.921Z,13.58
2019-04-01T17:53:54.163Z,13.08
2019-04-01T17:56:27.290Z,12.60
2019-04-01T17:59:01.704Z,12.88
2019-04-01T18:01:35.164Z,12.82
2019-04-01T18:04:07.966Z,12.98
2019-04-01T18:06:41.060Z,12.20
2019-04-01T18:09:14.291Z,13.48
2019-04-01T18:11:47.351Z,11.85
2019-04-01T18:14:20.512Z,12.30
2019-04-01T18:16:53.411Z,12.25
2019-04-01T18:19:26.631Z,12.37
2019-04-01T18:22:00.272Z,12.05
2019-04-01T18:24:33.861Z,11.40
2019-04-01T18:27:06.651Z,11.63
2019-04-01T18:29:39.991Z,11.60
2019-04-01T18:32:12.951Z,12.00
2019-04-01T18:34:47.661Z,11.40
2019-04-01T18:37:21.148Z,12.40
2019-04-01T18:39:57.129Z,12.68
2019-04-01T18:42:31.162Z,11.53
2019-04-01T18:45:05.179Z,11.30
2019-04-01T18:47:39.070Z,11.75
2019-04-01T18:50:14.436Z,11.33
2019-04-01T18:52:48.252Z,12.30
2019-04-01T18:55:21.341Z,11.97
2019-04-01T18:57:56.135Z,11.48
2019-04-01T19:00:29.491Z,12.23
2019-04-01T19:03:02.562Z,12.00
2019-04-01T19:05:35.872Z,12.53
2019-04-01T19:08:08.752Z,11.38
2019-04-01T19:10:42.035Z,12.35
2019-04-01T19:13:15.271Z,12.28
2019-04-01T19:15:49.360Z,11.38
2019-04-01T19:18:23.175Z,11.48
2019-04-01T19:20:59.272Z,11.60
2019-04-01T19:23:31.421Z,10.43
2019-04-01T19:26:05.072Z,10.50
2019-04-01T19:28:37.962Z,11.30
2019-04-01T19:31:12.008Z,11.22
2019-04-01T19:33:45.171Z,11.15
2019-04-01T19:36:18.211Z,11.97
2019-04-01T19:38:51.050Z,11.78
2019-04-01T19:41:24.221Z,11.63
2019-04-01T19:43:57.091Z,11.97
2019-04-01T19:46:30.221Z,11.63
2019-04-01T19:49:05.203Z,11.90
2019-04-01T19:51:38.145Z,13.03
2019-04-01T19:54:11.091Z,11.88
2019-04-01T19:56:44.321Z,11.00
2019-04-01T19:59:17.411Z,11.10
2019-04-01T20:01:50.781Z,11.53
2019-04-01T20:04:23.734Z,10.98
2019-04-01T20:06:56.631Z,11.50
2019-04-01T20:09:29.837Z,11.03
2019-04-01T20:12:02.934Z,11.05
2019-04-01T20:14:36.012Z,10.63
2019-04-01T20:17:09.941Z,10.25
2019-04-01T20:19:43.201Z,10.95
2019-04-01T20:22:16.241Z,10.38
2019-04-01T20:24:49.161Z,11.08
2019-04-01T20:27:22.165Z,10.80
2019-04-01T20:29:55.381Z,11.85
2019-04-01T20:32:28.622Z,11.53
2019-04-01T20:35:01.732Z,11.05
2019-04-01T20:37:35.081Z,11.10
2019-04-01T20:40:07.961Z,11.00
2019-04-01T20:42:41.191Z,11.38
2019-04-01T20:45:14.023Z,11.22
2019-04-01T20:47:50.130Z,11.55
2019-04-01T20:50:21.901Z,11.35
2019-04-01T20:52:54.991Z,11.50
2019-04-01T20:55:28.082Z,11.50
2019-04-01T20:58:01.131Z,11.00
2019-04-01T21:00:34.064Z,10.53
2019-04-01T21:03:06.855Z,10.70
2019-04-01T21:05:39.962Z,10.70
2019-04-01T21:08:12.805Z,11.30
2019-04-01T21:10:45.772Z,11.25
2019-04-01T21:13:18.765Z,11.53
2019-04-01T21:15:51.974Z,10.58
2019-04-01T21:29:15.309Z,11.80
2019-04-01T21:31:48.552Z,11.25
2019-04-01T21:34:21.909Z,10.53
2019-04-01T21:36:54.859Z,11.18
2019-04-01T21:39:28.020Z,10.68
2019-04-01T21:42:01.473Z,11.10
2019-04-01T21:44:34.728Z,11.20
2019-04-01T21:47:07.791Z,10.95
2019-04-01T21:49:40.956Z,10.15
2019-04-01T21:52:13.849Z,11.25
2019-04-01T21:54:47.029Z,10.98
2019-04-01T21:57:20.621Z,10.60
2019-04-01T21:59:54.628Z,10.88
2019-04-01T22:02:35.897Z,10.95
2019-04-01T22:05:02.703Z,10.53
2019-04-01T22:07:36.185Z,10.93
2019-04-01T22:10:09.009Z,10.68
2019-04-01T22:12:42.230Z,10.82
2019-04-01T22:15:15.296Z,10.80
2019-04-01T22:17:48.170Z,11.25
2019-04-01T22:20:21.229Z,10.53
2019-04-01T22:22:54.488Z,10.95
2019-04-01T22:25:27.670Z,10.25
2019-04-01T22:28:00.511Z,11.00
2019-04-01T22:30:33.589Z,10.80
2019-04-01T22:33:06.532Z,9.98
2019-04-01T22:35:41.554Z,10.95
2019-04-01T22:38:24.564Z,11.12
2019-04-01T22:40:49.273Z,11.38
2019-04-01T22:43:22.208Z,10.58
2019-04-01T22:45:54.989Z,10.25
2019-04-01T22:48:28.011Z,10.65
2019-04-01T22:51:01.149Z,10.38
2019-04-01T22:53:34.449Z,9.95
2019-04-01T22:56:07.409Z,10.82
2019-04-01T22:58:40.324Z,10.50
2019-04-01T23:01:13.270Z,10.85
2019-04-01T23:03:46.228Z,11.38
2019-04-01T23:06:19.139Z,10.70
2019-04-01T23:08:52.190Z,10.58
2019-04-01T23:11:25.499Z,10.50
2019-04-01T23:13:59.320Z,10.38
2019-04-01T23:16:32.449Z,10.53
2019-04-01T23:19:05.708Z,11.00
2019-04-01T23:21:38.689Z,10.38
2019-04-01T23:24:11.536Z,10.38
2019-04-01T23:26:44.657Z,10.55
2019-04-01T23:29:18.088Z,10.35
2019-04-01T23:31:51.354Z,10.88
2019-04-01T23:34:24.631Z,10.55
2019-04-01T23:36:57.599Z,10.43
2019-04-01T23:39:30.588Z,10.63
2019-04-01T23:42:03.894Z,10.00
2019-04-01T23:44:37.028Z,11.08
2019-04-01T23:47:09.989Z,10.70
2019-04-01T23:49:42.909Z,10.43
2019-04-01T23:52:15.829Z,10.65
2019-04-01T23:54:49.428Z,9.48
2019-04-01T23:57:22.285Z,10.18
2019-04-01T23:59:55.769Z,10.88
